Time;durP1;ratioP1;P1;durP2;ratioP2;P2;SDS_P1;SDS_P2;PMS_P1;PMS_P2;Temp;Humidity;BMP_temperature;BMP_pressure;BME280_temperature;BME280_humidity;BME280_pressure;Samples;Min_cycle;Max_cycle;Signal;HPM_P1;HPM_P2
2023/03/28 00:02:01;;;;;;;2.03;0.60;;;;;;;4.98;58.65;101226.69;10281752;28;20125;-71
2023/03/28 00:07:02;;;;;;;5.28;0.80;;;;;;;4.97;58.79;101232.97;10280955;28;20134;-71
2023/03/28 00:12:04;;;;;;;3.88;0.93;;;;;;;4.94;59.19;101241.22;10277573;28;20441;-72
2023/03/28 00:17:06;;;;;;;4.97;1.17;;;;;;;4.91;59.29;101252.94;10279913;28;20074;-70
2023/03/28 00:22:07;;;;;;;4.45;1.40;;;;;;;4.94;59.40;101259.88;10283153;28;20044;-71
2023/03/28 00:27:09;;;;;;;6.43;1.17;;;;;;;4.87;58.99;101263.94;10278738;28;20071;-72
2023/03/28 00:32:10;;;;;;;4.55;1.48;;;;;;;4.92;59.39;101269.78;10273518;28;20054;-71
2023/03/28 00:37:16;;;;;;;6.57;1.77;;;;;;;4.83;59.68;101275.78;10281180;28;20047;-72
2023/03/28 00:42:22;;;;;;;6.47;2.03;;;;;;;4.86;59.48;101278.22;10268500;28;20058;-72
2023/03/28 00:47:26;;;;;;;8.98;1.60;;;;;;;4.89;59.31;101283.31;10276267;28;20457;-71
2023/03/28 00:52:33;;;;;;;7.53;1.67;;;;;;;4.89;59.58;101286.81;10289908;28;20235;-71
2023/03/28 00:57:37;;;;;;;7.77;1.23;;;;;;;4.84;59.44;101285.47;10282203;28;20108;-71
2023/03/28 01:02:44;;;;;;;4.13;1.73;;;;;;;4.77;59.83;101291.25;10292088;28;20170;-72
2023/03/28 01:07:51;;;;;;;9.82;1.65;;;;;;;4.77;59.81;101291.25;10287640;28;20053;-72
2023/03/28 01:12:54;;;;;;;3.13;1.35;;;;;;;4.76;59.89;101286.06;10282670;28;20050;-71
2023/03/28 01:18:01;;;;;;;3.83;1.20;;;;;;;4.66;59.68;101290.38;10278177;28;20541;-71
2023/03/28 01:23:40;;;;;;;5.43;1.77;;;;;;;4.68;59.42;101286.66;10277748;28;20242;-72
2023/03/28 01:28:50;;;;;;;9.90;1.60;;;;;;;4.75;59.47;101289.69;10281127;28;20516;-70
2023/03/28 01:34:19;;;;;;;8.18;1.60;;;;;;;4.73;59.40;101296.94;10276365;28;20074;-71
2023/03/28 01:39:38;;;;;;;5.45;1.38;;;;;;;4.78;59.01;101294.81;10282140;28;20122;-72
2023/03/28 01:44:59;;;;;;;2.90;1.05;;;;;;;4.86;58.10;101300.41;10271461;28;20039;-72
2023/03/28 01:50:30;;;;;;;4.93;1.77;;;;;;;4.76;58.54;101302.06;10284944;28;20071;-72
2023/03/28 01:55:47;;;;;;;6.07;1.33;;;;;;;4.66;58.73;101306.34;10274952;28;20478;-72
2023/03/28 02:01:15;;;;;;;8.93;1.65;;;;;;;4.64;58.75;101303.81;10268501;28;20102;-71
2023/03/28 02:06:20;;;;;;;9.10;1.30;;;;;;;4.63;58.52;101309.25;10273193;28;20046;-71
2023/03/28 02:11:24;;;;;;;8.25;1.40;;;;;;;4.49;59.06;101316.44;10280167;28;20066;-71
2023/03/28 02:16:26;;;;;;;3.90;1.13;;;;;;;4.39;59.54;101312.75;10280966;28;20046;-72
2023/03/28 02:21:38;;;;;;;6.25;1.20;;;;;;;4.49;59.15;101304.94;10279299;28;20035;-71
2023/03/28 02:26:40;;;;;;;5.03;1.38;;;;;;;4.44;59.17;101312.41;10288824;28;20049;-71
2023/03/28 02:31:41;;;;;;;3.28;1.00;;;;;;;4.49;59.21;101308.44;10282773;28;20043;-70
2023/03/28 02:36:49;;;;;;;6.70;1.33;;;;;;;4.47;59.32;101313.03;10286978;28;20112;-71
2023/03/28 02:42:27;;;;;;;8.43;1.33;;;;;;;4.43;59.44;101308.06;10284093;28;20113;-71
2023/03/28 02:47:58;;;;;;;6.28;1.92;;;;;;;4.39;59.42;101310.09;10273399;28;20047;-71
2023/03/28 02:53:12;;;;;;;6.35;1.10;;;;;;;4.43;58.82;101303.59;10268895;28;20632;-70
2023/03/28 02:58:25;;;;;;;8.18;1.48;;;;;;;4.29;59.34;101301.94;10277490;28;20086;-71
2023/03/28 03:03:26;;;;;;;7.97;1.48;;;;;;;4.30;59.12;101303.63;10268409;28;20046;-70
2023/03/28 03:08:28;;;;;;;9.98;1.58;;;;;;;4.25;59.40;101303.13;10273209;28;20486;-72
2023/03/28 03:13:30;;;;;;;14.98;2.00;;;;;;;4.23;59.13;101294.41;10272100;28;20047;-70
2023/03/28 03:18:33;;;;;;;5.22;1.77;;;;;;;4.21;59.34;101295.47;10279271;28;20042;-70
2023/03/28 03:23:35;;;;;;;10.10;2.13;;;;;;;4.10;59.79;101301.56;10276305;28;20092;-70
2023/03/28 03:28:36;;;;;;;8.10;2.42;;;;;;;4.01;59.85;101286.25;10286316;28;20129;-70
2023/03/28 03:33:38;;;;;;;6.85;2.60;;;;;;;3.91;60.18;101289.59;10283729;28;20049;-71
2023/03/28 03:38:39;;;;;;;10.40;3.05;;;;;;;3.74;60.09;101288.13;10271583;28;20054;-71
2023/03/28 03:43:41;;;;;;;42.20;4.18;;;;;;;3.73;60.59;101296.19;10271793;28;20489;-71
2023/03/28 03:48:42;;;;;;;5.72;3.17;;;;;;;3.62;60.85;101301.44;10277126;28;20575;-70
2023/03/28 03:53:50;;;;;;;7.88;3.72;;;;;;;3.62;61.23;101304.94;10270708;28;20134;-71
2023/03/28 03:58:51;;;;;;;12.73;3.88;;;;;;;3.65;60.89;101312.69;10278069;28;20394;-71
2023/03/28 04:03:53;;;;;;;8.23;3.17;;;;;;;3.69;60.87;101314.19;10289688;28;20667;-71
2023/03/28 04:08:55;;;;;;;10.13;3.38;;;;;;;3.70;60.52;101320.34;10288749;28;20549;-72
2023/03/28 04:13:56;;;;;;;10.27;3.55;;;;;;;3.61;61.07;101326.31;10279856;28;20525;-71
2023/03/28 04:18:58;;;;;;;6.05;3.20;;;;;;;3.74;60.42;101328.00;10282113;28;20124;-70
2023/03/28 04:24:00;;;;;;;14.93;3.97;;;;;;;3.76;60.67;101334.06;10276873;28;20566;-71
2023/03/28 04:29:03;;;;;;;11.35;3.45;;;;;;;3.67;61.14;101339.16;10280322;28;20047;-71
2023/03/28 04:34:05;;;;;;;8.43;3.03;;;;;;;3.54;61.52;101348.00;10265025;28;20058;-72
2023/03/28 04:39:07;;;;;;;14.82;3.47;;;;;;;3.47;62.14;101345.88;10267825;28;20050;-71
2023/03/28 04:44:08;;;;;;;15.90;3.70;;;;;;;3.43;61.94;101353.19;10288326;28;20492;-71
2023/03/28 04:49:10;;;;;;;8.82;3.65;;;;;;;3.46;62.28;101365.44;10283439;28;20141;-70
2023/03/28 04:54:11;;;;;;;7.70;3.40;;;;;;;3.51;61.87;101364.16;10281298;28;20494;-72
2023/03/28 04:59:14;;;;;;;11.48;4.10;;;;;;;3.44;62.16;101378.00;10286024;28;20059;-72
2023/03/28 05:04:17;;;;;;;15.10;4.00;;;;;;;3.44;62.48;101378.00;10285927;28;20050;-71
2023/03/28 05:09:18;;;;;;;9.98;3.25;;;;;;;3.41;62.88;101384.34;10280070;28;20102;-72
2023/03/28 05:14:20;;;;;;;10.70;3.30;;;;;;;3.56;63.05;101387.78;10274927;28;20096;-67
2023/03/28 05:19:21;;;;;;;9.82;3.15;;;;;;;3.66;62.99;101382.69;10272455;28;20105;-66
2023/03/28 05:24:23;;;;;;;9.57;3.33;;;;;;;3.64;62.62;101393.41;10275099;28;20118;-66
2023/03/28 05:29:24;;;;;;;13.98;2.60;;;;;;;3.68;62.89;101392.25;10287695;28;20524;-68
2023/03/28 05:34:28;;;;;;;14.02;3.90;;;;;;;3.74;62.54;101401.63;10273980;28;20046;-68
2023/03/28 05:39:29;;;;;;;10.32;3.22;;;;;;;3.72;62.95;101409.69;10277326;28;20102;-66
2023/03/28 05:44:30;;;;;;;6.68;2.60;;;;;;;3.74;62.60;101414.91;10278470;28;20039;-67
2023/03/28 05:49:32;;;;;;;9.27;3.92;;;;;;;3.71;62.68;101413.31;10279185;28;20078;-69
2023/03/28 05:54:34;;;;;;;12.45;4.45;;;;;;;3.70;63.09;101408.94;10275089;28;20055;-69
2023/03/28 05:59:39;;;;;;;6.00;2.78;;;;;;;3.75;63.26;101412.16;10276145;28;20109;-62
2023/03/28 06:04:42;;;;;;;9.73;3.70;;;;;;;3.85;62.54;101407.03;10285062;28;20460;-69
2023/03/28 06:09:44;;;;;;;5.38;2.95;;;;;;;3.94;63.13;101416.19;10272892;28;20050;-68
2023/03/28 06:14:46;;;;;;;14.55;3.83;;;;;;;4.15;62.44;101416.50;10276533;28;20115;-68
2023/03/28 06:19:47;;;;;;;7.60;2.22;;;;;;;4.26;62.40;101413.06;10282733;28;20158;-69
2023/03/28 06:24:49;;;;;;;11.88;2.65;;;;;;;4.40;62.07;101428.91;10277104;28;20049;-69
2023/03/28 06:29:50;;;;;;;6.38;2.67;;;;;;;4.60;61.12;101423.97;10259527;28;20135;-69
2023/03/28 06:34:52;;;;;;;11.55;3.20;;;;;;;4.64;61.34;101426.31;10277863;28;20132;-69
2023/03/28 06:39:53;;;;;;;4.88;1.95;;;;;;;4.63;61.21;101431.75;10271957;28;20156;-69
2023/03/28 06:44:54;;;;;;;5.72;1.48;;;;;;;4.78;61.18;101422.66;10275820;28;20154;-69
2023/03/28 06:49:56;;;;;;;6.50;1.52;;;;;;;4.92;60.64;101425.16;10268568;28;20054;-69
2023/03/28 06:54:57;;;;;;;3.65;1.00;;;;;;;5.04;60.66;101423.38;10275913;28;20109;-68
2023/03/28 06:59:59;;;;;;;8.10;1.50;;;;;;;5.22;59.57;101437.16;10274711;28;20074;-69
2023/03/28 07:05:00;;;;;;;6.03;1.27;;;;;;;5.34;60.13;101444.25;10280774;28;20097;-69
2023/03/28 07:10:02;;;;;;;7.38;0.80;;;;;;;5.40;59.62;101448.25;10280768;28;20061;-69
2023/03/28 07:15:04;;;;;;;10.75;1.27;;;;;;;5.38;59.06;101452.88;10280958;28;20585;-68
2023/03/28 07:20:06;;;;;;;5.28;0.90;;;;;;;5.52;58.93;101454.50;10281278;28;20075;-71
2023/03/28 07:25:08;;;;;;;10.15;1.55;;;;;;;5.65;58.15;101444.59;10287815;28;20066;-68
2023/03/28 07:30:10;;;;;;;7.95;1.63;;;;;;;5.87;57.86;101446.47;10289215;28;20053;-71
2023/03/28 07:35:12;;;;;;;9.13;1.13;;;;;;;5.86;57.69;101463.44;10283807;28;20062;-69
2023/03/28 07:40:15;;;;;;;6.03;1.15;;;;;;;6.14;57.01;101462.19;10303577;28;20047;-69
2023/03/28 07:45:16;;;;;;;11.27;2.15;;;;;;;6.20;56.88;101462.66;10299811;28;20066;-69
2023/03/28 07:50:18;;;;;;;8.48;1.05;;;;;;;6.23;56.95;101465.13;10308215;28;20077;-68
2023/03/28 07:55:20;;;;;;;7.43;1.15;;;;;;;6.62;56.21;101469.13;10282376;28;20042;-70
2023/03/28 08:00:22;;;;;;;5.68;1.92;;;;;;;6.80;55.57;101468.63;10253889;28;20046;-70
2023/03/28 08:05:25;;;;;;;7.97;0.88;;;;;;;6.90;55.77;101477.59;10263180;28;20391;-71
2023/03/28 08:10:26;;;;;;;7.32;0.80;;;;;;;6.97;54.79;101477.94;10259953;28;20090;-72
2023/03/28 08:15:28;;;;;;;8.27;0.80;;;;;;;7.25;54.95;101472.03;10272927;28;20051;-72
2023/03/28 08:20:29;;;;;;;8.00;0.68;;;;;;;7.26;53.72;101481.75;10279932;28;20047;-70
2023/03/28 08:25:31;;;;;;;4.75;0.80;;;;;;;7.28;53.60;101487.81;10271767;28;20055;-71
2023/03/28 08:30:32;;;;;;;11.50;1.15;;;;;;;7.34;53.91;101483.78;10281104;28;20481;-72
2023/03/28 08:35:34;;;;;;;6.60;1.25;;;;;;;7.30;53.04;101485.00;10271713;28;21716;-72
2023/03/28 08:40:43;;;;;;;5.20;0.50;;;;;;;7.62;52.57;101494.88;10278707;28;20158;-71
2023/03/28 08:45:51;;;;;;;5.32;0.75;;;;;;;7.83;51.43;101485.03;10275786;28;20067;-72
2023/03/28 08:50:59;;;;;;;10.93;0.90;;;;;;;8.11;51.30;101488.88;10268668;28;20070;-71
2023/03/28 08:56:04;;;;;;;6.88;0.70;;;;;;;8.68;50.75;101477.75;10269018;28;20130;-72
2023/03/28 09:01:08;;;;;;;3.10;0.50;;;;;;;8.46;48.63;101476.97;10274107;28;20042;-72
2023/03/28 09:06:29;;;;;;;5.28;0.77;;;;;;;8.44;48.26;101470.06;10276179;28;20051;-73
2023/03/28 09:11:44;;;;;;;2.22;0.40;;;;;;;8.49;47.35;101474.03;10272447;28;20039;-72
2023/03/28 09:16:55;;;;;;;4.90;0.25;;;;;;;8.19;46.36;101479.34;10279025;28;20137;-71
2023/03/28 09:22:15;;;;;;;1.13;0.20;;;;;;;8.36;45.26;101480.56;10275046;28;20049;-71
2023/03/28 09:27:31;;;;;;;6.90;1.05;;;;;;;8.39;45.56;101478.44;10287772;28;20050;-71
2023/03/28 09:32:38;;;;;;;2.55;0.30;;;;;;;8.68;45.04;101467.88;10279851;28;20121;-72
2023/03/28 09:37:41;;;;;;;8.97;1.20;;;;;;;8.92;45.00;101464.00;10292164;28;20046;-72
2023/03/28 09:42:54;;;;;;;3.28;0.30;;;;;;;9.07;45.06;101454.56;10278215;28;20089;-73
2023/03/28 09:47:55;;;;;;;3.67;0.60;;;;;;;9.63;44.97;101455.72;10282331;28;20105;-70
2023/03/28 09:52:57;;;;;;;6.28;0.40;;;;;;;9.95;44.85;101445.63;10281925;28;20069;-71
2023/03/28 09:58:11;;;;;;;5.15;0.40;;;;;;;10.27;44.12;101435.38;10274931;28;20561;-66
2023/03/28 10:03:28;;;;;;;0.50;0.40;;;;;;;10.62;43.60;101435.66;10284757;28;20132;-67
2023/03/28 10:08:39;;;;;;;5.97;0.30;;;;;;;10.60;43.26;101425.06;10302691;28;20053;-68
2023/03/28 10:13:51;;;;;;;1.38;0.25;;;;;;;10.47;43.21;101420.03;10303913;28;20058;-68
2023/03/28 10:18:53;;;;;;;7.47;0.90;;;;;;;10.59;42.39;101425.22;10297742;28;20113;-67
2023/03/28 10:24:09;;;;;;;1.58;0.40;;;;;;;10.87;41.47;101409.91;10295245;28;20047;-67
2023/03/28 10:29:12;;;;;;;2.85;0.45;;;;;;;10.79;41.61;101426.81;10296539;28;20042;-67
2023/03/28 10:34:32;;;;;;;7.72;0.40;;;;;;;10.87;41.57;101416.13;10290657;28;20058;-68
2023/03/28 10:39:34;;;;;;;3.83;0.40;;;;;;;10.88;41.44;101417.84;10297555;28;20049;-69
2023/03/28 10:44:35;;;;;;;3.22;0.30;;;;;;;10.57;41.21;101429.91;10292072;28;20038;-69
2023/03/28 10:49:45;;;;;;;2.30;0.50;;;;;;;10.65;40.79;101422.78;10291700;28;20066;-69
2023/03/28 10:55:03;;;;;;;4.07;0.38;;;;;;;10.82;40.20;101420.25;10290505;28;20043;-68
2023/03/28 11:00:18;;;;;;;4.05;0.40;;;;;;;11.30;39.18;101422.63;10284334;28;20548;-69
2023/03/28 11:05:51;;;;;;;1.90;0.20;;;;;;;11.62;38.68;101410.44;10301548;28;20065;-68
2023/03/28 11:11:41;;;;;;;2.42;0.30;;;;;;;11.76;38.41;101409.00;10288854;28;20057;-67
2023/03/28 11:17:22;;;;;;;5.72;0.50;;;;;;;12.04;38.44;101398.94;10289793;28;20163;-68
2023/03/28 11:22:48;;;;;;;1.90;0.30;;;;;;;12.12;38.13;101397.31;10306938;28;20043;-66
2023/03/28 11:28:14;;;;;;;3.13;0.30;;;;;;;11.90;37.88;101396.84;10286782;28;20105;-66
2023/03/28 11:33:23;;;;;;;2.35;0.30;;;;;;;12.01;37.05;101387.66;10290071;28;20051;-65
2023/03/28 11:38:39;;;;;;;6.75;0.52;;;;;;;11.48;36.41;101374.13;10313468;28;20042;-64
2023/03/28 11:43:48;;;;;;;3.28;0.20;;;;;;;11.60;36.38;101366.66;10299248;28;20058;-66
2023/03/28 11:49:14;;;;;;;3.78;0.38;;;;;;;11.67;36.33;101359.63;10280092;28;20098;-64
2023/03/28 11:54:21;;;;;;;3.85;0.30;;;;;;;11.82;36.41;101359.03;10313786;28;20071;-64
2023/03/28 11:59:25;;;;;;;1.93;0.40;;;;;;;12.39;35.93;101353.97;10298118;28;20058;-65
2023/03/28 12:04:32;;;;;;;2.00;0.20;;;;;;;12.26;35.51;101350.88;10302663;28;20293;-64
2023/03/28 12:09:48;;;;;;;2.60;0.45;;;;;;;12.36;35.46;101339.94;10282103;28;20146;-64
2023/03/28 12:14:59;;;;;;;1.73;0.30;;;;;;;12.41;35.64;101324.97;10284679;28;20038;-69
2023/03/28 12:20:01;;;;;;;6.28;0.63;;;;;;;12.10;35.81;101324.69;10278785;28;20054;-70
2023/03/28 12:25:20;;;;;;;4.30;0.75;;;;;;;12.26;35.76;101319.38;10273214;28;20050;-69
2023/03/28 12:30:34;;;;;;;2.63;0.30;;;;;;;12.48;34.37;101303.63;10264871;28;20439;-70
2023/03/28 12:35:51;;;;;;;2.13;0.63;;;;;;;12.94;33.49;101298.59;10272892;28;20077;-68
2023/03/28 12:41:04;;;;;;;2.30;0.20;;;;;;;13.03;32.46;101296.75;10287492;28;20054;-68
2023/03/28 12:46:07;;;;;;;0.90;0.30;;;;;;;13.17;32.46;101287.97;10271572;28;20124;-69
2023/03/28 12:51:14;;;;;;;3.53;0.30;;;;;;;13.02;32.17;101292.38;10280616;28;20405;-70
2023/03/28 12:56:16;;;;;;;5.07;0.30;;;;;;;13.55;32.28;101287.44;10280381;28;20137;-67
2023/03/28 13:01:44;;;;;;;2.05;0.30;;;;;;;13.31;31.85;101291.88;10285615;28;20042;-69
2023/03/28 13:07:02;;;;;;;2.78;0.80;;;;;;;13.46;31.87;101286.59;10283814;28;20057;-68
2023/03/28 13:12:25;;;;;;;2.00;0.20;;;;;;;13.59;32.02;101269.88;10283677;28;20054;-69
2023/03/28 13:17:32;;;;;;;3.80;0.30;;;;;;;13.56;31.55;101268.34;10277535;28;20047;-68
2023/03/28 13:22:53;;;;;;;0.35;0.17;;;;;;;13.80;30.98;101259.34;10279864;28;20050;-69
2023/03/28 13:27:59;;;;;;;3.38;0.30;;;;;;;13.57;31.30;101255.72;10283554;28;20522;-67
2023/03/28 13:33:11;;;;;;;1.25;0.28;;;;;;;13.51;30.98;101248.25;10272548;28;20080;-70
2023/03/28 13:38:27;;;;;;;3.75;0.30;;;;;;;13.44;31.07;101229.22;10287856;28;20054;-66
2023/03/28 13:43:32;;;;;;;5.22;0.75;;;;;;;13.25;31.02;101236.66;10271942;28;20383;-65
2023/03/28 13:48:42;;;;;;;2.33;0.40;;;;;;;13.65;30.95;101221.38;10280697;28;20090;-66
2023/03/28 13:53:47;;;;;;;2.10;0.20;;;;;;;13.43;30.85;101216.75;10284426;28;20101;-68
2023/03/28 13:58:51;;;;;;;2.10;0.20;;;;;;;13.42;30.57;101202.38;10268908;28;20101;-67
2023/03/28 14:03:53;;;;;;;1.23;0.40;;;;;;;13.37;30.86;101191.28;10265418;28;20176;-67
2023/03/28 14:08:57;;;;;;;2.88;0.70;;;;;;;13.86;31.12;101174.84;10266443;28;20510;-67
2023/03/28 14:14:11;;;;;;;4.40;0.28;;;;;;;14.63;30.57;101156.91;10282529;28;20441;-66
2023/03/28 14:19:19;;;;;;;3.58;0.30;;;;;;;15.13;30.20;101154.59;10272213;28;20047;-67
2023/03/28 14:24:25;;;;;;;3.30;0.38;;;;;;;14.74;30.47;101153.78;10274209;28;20052;-67
2023/03/28 14:29:26;;;;;;;1.15;0.25;;;;;;;14.28;30.94;101148.41;10282398;28;20047;-68
2023/03/28 14:34:37;;;;;;;1.52;0.30;;;;;;;14.12;31.07;101145.78;10278955;28;20055;-69
2023/03/28 14:39:39;;;;;;;3.40;0.40;;;;;;;14.15;30.65;101151.69;10275905;28;20050;-67
2023/03/28 14:44:43;;;;;;;1.20;0.30;;;;;;;14.31;30.99;101136.38;10268712;28;21573;-67
2023/03/28 14:49:45;;;;;;;3.53;0.40;;;;;;;14.91;30.55;101135.53;10266899;28;20058;-65
2023/03/28 14:54:48;;;;;;;2.13;0.40;;;;;;;15.70;29.63;101118.66;10237610;28;20141;-65
2023/03/28 14:59:51;;;;;;;2.42;0.77;;;;;;;15.26;30.09;101120.41;10263334;28;20505;-66
2023/03/28 15:04:57;;;;;;;1.08;0.35;;;;;;;14.59;30.44;101102.34;10294913;28;20153;-66
2023/03/28 15:10:20;;;;;;;2.40;0.40;;;;;;;15.12;29.72;101098.72;10286507;28;20046;-66
2023/03/28 15:15:27;;;;;;;3.78;0.50;;;;;;;14.82;29.84;101091.44;10291955;28;20118;-66
2023/03/28 15:20:33;;;;;;;5.03;0.60;;;;;;;14.67;30.46;101085.16;10282446;28;20138;-66
2023/03/28 15:25:35;;;;;;;2.15;0.55;;;;;;;14.82;30.56;101075.19;10277917;28;20341;-66
2023/03/28 15:30:42;;;;;;;5.50;0.40;;;;;;;14.62;30.92;101076.78;10282219;28;20055;-66
2023/03/28 15:35:44;;;;;;;4.75;1.40;;;;;;;14.47;30.83;101068.59;10274246;28;20074;-66
2023/03/28 15:40:48;;;;;;;5.03;0.47;;;;;;;14.50;30.58;101062.00;10271729;28;20039;-66
2023/03/28 15:46:00;;;;;;;1.55;0.40;;;;;;;14.58;30.59;101045.69;10274790;28;20634;-66
2023/03/28 15:51:05;;;;;;;5.13;0.52;;;;;;;14.73;30.71;101049.25;10271518;28;20073;-67
2023/03/28 15:56:28;;;;;;;1.95;0.55;;;;;;;14.61;30.85;101040.78;10278565;28;20047;-67
2023/03/28 16:01:31;;;;;;;4.00;0.60;;;;;;;14.15;31.13;101035.41;10277106;28;20797;-70
2023/03/28 16:06:40;;;;;;;8.10;0.80;;;;;;;13.92;31.52;101027.34;10273133;28;20141;-72
2023/03/28 16:11:43;;;;;;;6.10;1.30;;;;;;;13.64;31.65;101025.16;10276530;28;20379;-72
2023/03/28 16:16:45;;;;;;;5.07;0.50;;;;;;;13.89;31.92;101022.28;10285554;28;20454;-72
2023/03/28 16:21:47;;;;;;;4.00;0.50;;;;;;;13.62;31.76;101007.47;10269448;28;20042;-72
2023/03/28 16:26:48;;;;;;;2.15;0.40;;;;;;;13.21;31.59;101004.97;10279582;28;20042;-72
2023/03/28 16:31:50;;;;;;;1.90;0.40;;;;;;;13.11;31.91;101005.19;10285845;28;20097;-71
2023/03/28 16:36:54;;;;;;;4.90;0.60;;;;;;;12.82;32.26;100993.19;10282792;28;20058;-70
2023/03/28 16:41:56;;;;;;;2.28;0.70;;;;;;;12.64;32.64;100989.91;10289993;28;20047;-70
2023/03/28 16:46:58;;;;;;;4.60;0.98;;;;;;;12.48;33.07;100980.00;10293243;28;20456;-72
2023/03/28 16:52:00;;;;;;;3.92;1.10;;;;;;;12.30;33.26;100962.19;10285305;28;20486;-72
2023/03/28 16:57:03;;;;;;;3.88;0.70;;;;;;;12.13;33.32;100965.09;10286048;28;20169;-72
2023/03/28 17:02:04;;;;;;;3.55;0.80;;;;;;;11.96;33.84;100962.41;10281774;28;20043;-69
2023/03/28 17:07:05;;;;;;;3.75;0.50;;;;;;;11.89;34.43;100946.09;10297673;28;20505;-71
2023/03/28 17:12:07;;;;;;;4.95;0.60;;;;;;;11.73;34.27;100940.69;10292509;28;20050;-72
2023/03/28 17:17:09;;;;;;;8.23;1.00;;;;;;;11.54;35.00;100949.94;10281061;28;20047;-68
2023/03/28 17:22:11;;;;;;;3.28;0.52;;;;;;;11.34;35.31;100937.81;10268582;28;20066;-71
2023/03/28 17:27:13;;;;;;;7.43;1.00;;;;;;;11.31;35.06;100929.06;10283955;28;20101;-71
2023/03/28 17:32:15;;;;;;;2.65;0.50;;;;;;;11.42;35.56;100927.03;10275393;28;20105;-70
2023/03/28 17:37:16;;;;;;;3.35;0.63;;;;;;;11.34;35.72;100921.66;10278417;28;20063;-70
2023/03/28 17:42:18;;;;;;;4.60;0.40;;;;;;;11.34;36.03;100909.03;10259501;28;20035;-69
2023/03/28 17:47:19;;;;;;;2.20;0.55;;;;;;;11.29;36.26;100914.94;10277620;28;20113;-69
2023/03/28 17:52:20;;;;;;;5.30;1.08;;;;;;;11.34;36.30;100916.28;10277167;28;20059;-68
2023/03/28 17:57:22;;;;;;;5.10;0.80;;;;;;;11.37;36.83;100924.00;10274548;28;20063;-72
2023/03/28 18:02:23;;;;;;;2.45;0.60;;;;;;;11.28;37.32;100920.47;10271329;28;20051;-67
2023/03/28 18:07:25;;;;;;;4.63;0.85;;;;;;;11.23;37.25;100928.19;10283728;28;20503;-68
2023/03/28 18:12:27;;;;;;;6.28;1.00;;;;;;;11.24;37.64;100921.81;10278870;28;20557;-71
2023/03/28 18:17:29;;;;;;;6.25;0.70;;;;;;;11.20;37.87;100920.47;10276844;28;20157;-67
2023/03/28 18:22:30;;;;;;;3.03;0.50;;;;;;;11.15;37.95;100918.25;10289680;28;20421;-67
2023/03/28 18:27:32;;;;;;;7.63;0.82;;;;;;;11.11;37.85;100922.28;10271923;28;20039;-68
2023/03/28 18:32:34;;;;;;;6.00;1.00;;;;;;;11.01;37.98;100918.91;10289901;28;20065;-69
2023/03/28 18:37:36;;;;;;;4.22;0.85;;;;;;;11.00;38.14;100920.75;10286195;28;20150;-69
2023/03/28 18:42:37;;;;;;;3.20;0.85;;;;;;;11.01;38.14;100921.59;10281514;28;20430;-70
2023/03/28 18:47:39;;;;;;;4.85;0.90;;;;;;;10.97;38.22;100915.69;10278647;28;20054;-67
2023/03/28 18:52:41;;;;;;;6.93;1.00;;;;;;;10.92;38.38;100912.69;10275952;28;20494;-67
2023/03/28 18:57:43;;;;;;;5.03;0.90;;;;;;;10.88;38.71;100912.16;10283178;28;20047;-68
2023/03/28 19:02:45;;;;;;;3.88;0.55;;;;;;;10.88;38.60;100909.47;10274197;28;20503;-69
2023/03/28 19:07:47;;;;;;;5.28;0.82;;;;;;;10.86;38.51;100902.53;10271467;28;20494;-69
2023/03/28 19:12:49;;;;;;;4.88;2.05;;;;;;;10.82;38.38;100907.44;10261113;28;20039;-69
2023/03/28 19:17:53;;;;;;;3.45;1.05;;;;;;;10.82;38.52;100899.38;10260388;28;20506;-68
2023/03/28 19:22:54;;;;;;;2.88;1.63;;;;;;;10.82;38.58;100895.81;10281348;28;20072;-67
2023/03/28 19:27:56;;;;;;;1.55;0.68;;;;;;;10.82;38.97;100890.44;10258346;28;20047;-68
2023/03/28 19:32:57;;;;;;;6.05;1.02;;;;;;;10.77;38.96;100890.09;10272590;28;20043;-67
2023/03/28 19:38:01;;;;;;;4.82;1.02;;;;;;;10.75;38.93;100876.81;10273073;28;20085;-68
2023/03/28 19:43:02;;;;;;;10.18;0.73;;;;;;;10.73;39.26;100880.69;10286049;28;20043;-67
2023/03/28 19:48:04;;;;;;;4.63;1.33;;;;;;;10.64;39.21;100883.34;10278601;28;20059;-68
2023/03/28 19:53:05;;;;;;;4.63;1.42;;;;;;;10.66;39.42;100880.47;10284487;28;20536;-67
2023/03/28 19:58:08;;;;;;;6.43;1.60;;;;;;;10.63;39.33;100873.59;10290121;28;20081;-68
2023/03/28 20:03:10;;;;;;;4.13;1.40;;;;;;;10.58;39.39;100881.28;10279460;28;20044;-67
2023/03/28 20:08:12;;;;;;;4.35;1.00;;;;;;;10.62;38.95;100879.13;10285464;28;20069;-67
2023/03/28 20:13:15;;;;;;;5.88;1.52;;;;;;;10.63;38.96;100868.22;10268235;28;20067;-68
2023/03/28 20:18:19;;;;;;;6.30;1.83;;;;;;;10.65;38.79;100878.81;10283508;28;20038;-68
2023/03/28 20:23:22;;;;;;;6.97;1.75;;;;;;;10.62;39.01;100873.75;10270708;28;20089;-67
2023/03/28 20:28:24;;;;;;;3.80;1.02;;;;;;;10.67;38.70;100887.56;10271724;28;20051;-69
2023/03/28 20:33:25;;;;;;;5.70;1.23;;;;;;;10.65;38.60;100890.41;10281246;28;20101;-69
2023/03/28 20:38:28;;;;;;;3.33;1.20;;;;;;;10.48;38.83;100883.28;10270782;28;20521;-68
2023/03/28 20:43:35;;;;;;;3.60;0.90;;;;;;;10.45;38.88;100872.88;10274639;28;20132;-68
2023/03/28 20:48:37;;;;;;;2.43;0.83;;;;;;;10.46;39.20;100864.63;10277857;28;20078;-67
2023/03/28 20:53:43;;;;;;;4.32;0.82;;;;;;;10.56;38.43;100860.97;10266945;28;20498;-66
2023/03/28 20:58:45;;;;;;;3.38;0.70;;;;;;;10.50;38.86;100865.13;10270806;28;20146;-67
2023/03/28 21:03:49;;;;;;;2.38;0.80;;;;;;;10.47;39.42;100874.38;10277084;28;20067;-66
2023/03/28 21:08:53;;;;;;;4.75;1.45;;;;;;;10.28;40.53;100861.16;10278287;28;20043;-65
2023/03/28 21:13:55;;;;;;;0.60;0.40;;;;;;;10.11;41.72;100849.47;10281510;28;20089;-67
2023/03/28 21:18:58;;;;;;;3.28;0.70;;;;;;;9.94;43.15;100856.63;10282374;28;20303;-65
2023/03/28 21:24:01;;;;;;;6.78;1.50;;;;;;;10.01;43.50;100846.94;10294905;28;20050;-66
2023/03/28 21:29:03;;;;;;;1.73;0.85;;;;;;;10.02;43.87;100832.50;10283986;28;20446;-67
2023/03/28 21:34:04;;;;;;;3.38;1.02;;;;;;;9.95;44.44;100822.56;10275866;28;20042;-67
2023/03/28 21:39:06;;;;;;;1.63;0.50;;;;;;;10.03;44.36;100819.91;10277435;28;20502;-66
2023/03/28 21:44:08;;;;;;;2.53;0.80;;;;;;;10.12;44.70;100817.09;10277775;28;20161;-67
2023/03/28 21:49:09;;;;;;;3.20;0.75;;;;;;;10.24;44.53;100814.13;10286918;28;20070;-67
2023/03/28 21:54:11;;;;;;;2.53;0.77;;;;;;;10.21;44.53;100826.06;10271844;28;20062;-67
2023/03/28 21:59:12;;;;;;;2.63;0.88;;;;;;;10.20;44.89;100829.72;10280271;28;20162;-67
2023/03/28 22:04:14;;;;;;;2.65;0.70;;;;;;;10.11;45.55;100828.84;10276840;28;20067;-67
2023/03/28 22:09:16;;;;;;;3.53;1.05;;;;;;;10.01;46.10;100835.34;10274468;28;20130;-66
2023/03/28 22:14:17;;;;;;;3.35;0.52;;;;;;;9.73;46.87;100819.41;10278244;28;20050;-66
2023/03/28 22:19:19;;;;;;;2.97;0.98;;;;;;;9.76;47.76;100818.28;10277039;28;20568;-66
2023/03/28 22:24:20;;;;;;;3.63;0.93;;;;;;;9.29;49.66;100811.41;10275264;28;20066;-66
2023/03/28 22:29:22;;;;;;;3.22;0.80;;;;;;;8.83;50.92;100800.81;10275671;28;20486;-66
2023/03/28 22:34:23;;;;;;;1.77;0.80;;;;;;;8.77;51.66;100793.41;10270937;28;20456;-66
2023/03/28 22:39:25;;;;;;;4.22;0.77;;;;;;;8.71;51.37;100794.00;10276323;28;20439;-66
2023/03/28 22:44:26;;;;;;;3.53;1.33;;;;;;;8.81;51.68;100786.72;10274846;28;20190;-66
2023/03/28 22:49:30;;;;;;;3.30;0.57;;;;;;;8.90;51.16;100795.66;10267551;28;20051;-66
2023/03/28 22:54:33;;;;;;;2.30;0.65;;;;;;;8.96;51.25;100789.69;10278261;28;20243;-66
2023/03/28 22:59:35;;;;;;;2.92;0.68;;;;;;;9.08;51.25;100777.75;10283699;28;20109;-66
2023/03/28 23:04:37;;;;;;;2.60;0.70;;;;;;;9.20;51.63;100772.09;10276273;28;20051;-66
2023/03/28 23:09:40;;;;;;;3.58;0.47;;;;;;;9.24;51.88;100773.47;10277428;28;20042;-66
2023/03/28 23:14:41;;;;;;;5.60;1.08;;;;;;;9.29;51.60;100765.81;10270745;28;20525;-66
2023/03/28 23:19:43;;;;;;;2.25;0.90;;;;;;;9.39;52.34;100763.03;10278779;28;20069;-65
2023/03/28 23:24:45;;;;;;;3.05;0.50;;;;;;;9.40;52.42;100762.00;10278058;28;20043;-65
2023/03/28 23:29:47;;;;;;;1.92;0.85;;;;;;;9.39;52.36;100763.88;10275905;28;20098;-65